Time;durP1;ratioP1;P1;durP2;ratioP2;P2;SDS_P1;SDS_P2;PMS_P1;PMS_P2;Temp;Humidity;BMP_temperature;BMP_pressure;BME280_temperature;BME280_humidity;BME280_pressure;Samples;Min_cycle;Max_cycle;Signal;HPM_P1;HPM_P2
2022/08/03 00:01:35;;;;;;;4.95;4.45;;;;;;;21.58;nan;100477.75;5002933;28;20079;-69
2022/08/03 00:04:02;;;;;;;5.85;4.95;;;;;;;21.58;nan;100475.06;4998597;28;20042;-70
2022/08/03 00:06:27;;;;;;;6.25;4.70;;;;;;;21.50;nan;100450.84;5002473;28;20037;-70
2022/08/03 00:08:52;;;;;;;10.30;4.93;;;;;;;21.54;nan;100465.25;5007459;28;20400;-70
2022/08/03 00:11:18;;;;;;;9.52;4.88;;;;;;;21.51;nan;100463.94;5001535;28;20153;-68
2022/08/03 00:13:43;;;;;;;7.22;4.78;;;;;;;21.49;nan;100465.34;5006000;28;20092;-68
2022/08/03 00:16:10;;;;;;;10.25;4.70;;;;;;;21.37;nan;100415.69;4996505;28;20034;-69
2022/08/03 00:18:36;;;;;;;12.10;5.18;;;;;;;21.42;nan;100471.09;5008349;28;20046;-69
2022/08/03 00:21:03;;;;;;;6.75;4.78;;;;;;;21.27;nan;100441.88;5005318;28;20042;-70
2022/08/03 00:23:28;;;;;;;6.78;5.25;;;;;;;21.21;nan;100460.72;5006644;28;20112;-69
2022/08/03 00:25:55;;;;;;;8.38;5.25;;;;;;;21.17;nan;100507.13;4958332;28;1245156;-67
2022/08/03 00:28:23;;;;;;;7.78;5.43;;;;;;;21.06;nan;100454.81;5003963;28;20121;-68
2022/08/03 00:30:48;;;;;;;6.63;5.20;;;;;;;20.96;nan;100461.13;5009998;28;20527;-69
2022/08/03 00:33:14;;;;;;;7.50;5.50;;;;;;;20.89;nan;100461.50;5002894;28;20056;-69
2022/08/03 00:35:40;;;;;;;8.70;5.57;;;;;;;;;;5005369;28;20038;-68
2022/08/03 00:38:05;;;;;;;6.93;4.97;;;;;;;20.86;nan;100437.22;5004425;28;20051;-69
2022/08/03 00:40:32;;;;;;;7.13;5.38;;;;;;;20.84;nan;100484.88;5006087;28;20042;-69
2022/08/03 00:43:02;;;;;;;11.18;5.75;;;;;;;20.73;nan;100457.47;5009296;28;20038;-69
2022/08/03 00:45:30;;;;;;;7.15;4.90;;;;;;;20.80;nan;100449.88;5021422;28;20046;-68
2022/08/03 00:47:56;;;;;;;7.07;4.82;;;;;;;20.84;nan;100421.44;5009610;28;20491;-68
2022/08/03 00:50:23;;;;;;;7.53;5.07;;;;;;;20.84;nan;100472.28;5006550;28;20045;-69
2022/08/03 00:52:51;;;;;;;9.95;4.97;;;;;;;20.85;nan;100511.34;5003176;28;20030;-70
2022/08/03 00:55:16;;;;;;;6.35;4.82;;;;;;;20.83;nan;100473.38;5003078;28;20433;-68
2022/08/03 00:57:42;;;;;;;9.52;5.55;;;;;;;20.83;nan;100476.06;5004879;28;20034;-70
2022/08/03 01:00:10;;;;;;;11.52;5.30;;;;;;;20.79;nan;100459.78;5007133;28;20033;-69
2022/08/03 01:02:36;;;;;;;9.65;5.30;;;;;;;20.74;nan;100469.78;5007746;28;21474;-69
2022/08/03 01:05:02;;;;;;;7.95;5.55;;;;;;;20.72;nan;100427.25;5006312;28;20038;-68
2022/08/03 01:07:53;;;;;;;8.25;6.22;;;;;;;20.73;nan;100482.34;5008513;28;20108;-69
2022/08/03 01:10:55;;;;;;;8.50;5.85;;;;;;;20.72;nan;100479.97;5003620;28;20076;-68
2022/08/03 01:13:28;;;;;;;7.22;5.65;;;;;;;20.70;nan;100455.38;5003718;28;20042;-69
2022/08/03 01:16:14;;;;;;;7.05;5.10;;;;;;;20.69;nan;100475.22;5003014;28;20034;-68
2022/08/03 01:18:46;;;;;;;8.43;5.38;;;;;;;20.69;nan;100483.25;5000814;28;20496;-68
2022/08/03 01:21:16;;;;;;;8.75;5.60;;;;;;;20.67;nan;100467.47;5022084;28;20045;-69
2022/08/03 01:23:42;;;;;;;7.88;5.78;;;;;;;20.53;nan;100480.75;5009134;28;20061;-70
2022/08/03 01:26:23;;;;;;;8.95;6.28;;;;;;;20.44;nan;100453.03;5010134;28;20081;-69
2022/08/03 01:29:19;;;;;;;10.38;6.45;;;;;;;20.42;nan;100467.78;5009083;28;20151;-69
2022/08/03 01:32:00;;;;;;;9.48;5.80;;;;;;;20.31;nan;100457.25;5008249;28;20042;-69
2022/08/03 01:34:28;;;;;;;7.88;6.05;;;;;;;;;;5009494;28;20388;-68
2022/08/03 01:36:56;;;;;;;7.03;5.70;;;;;;;20.14;nan;100462.28;5008763;28;20465;-70
2022/08/03 01:39:23;;;;;;;10.75;5.90;;;;;;;19.99;nan;100463.25;5010128;28;21920;-69
2022/08/03 01:41:51;;;;;;;6.38;5.50;;;;;;;;;;5010982;28;20412;-68
2022/08/03 01:44:18;;;;;;;7.43;5.67;;;;;;;19.78;nan;100481.44;5009795;28;20472;-68
2022/08/03 01:46:47;;;;;;;7.60;6.53;;;;;;;19.63;nan;100458.28;5005538;28;20282;-69
2022/08/03 01:49:14;;;;;;;9.38;6.35;;;;;;;19.62;nan;100469.28;5008413;28;20030;-69
2022/08/03 01:51:42;;;;;;;9.18;6.13;;;;;;;19.51;nan;100471.25;5004899;28;20029;-68
2022/08/03 01:54:09;;;;;;;7.05;5.95;;;;;;;19.42;nan;100462.25;5009235;28;20034;-68
2022/08/03 01:56:36;;;;;;;8.25;6.43;;;;;;;19.37;nan;100535.22;5006249;28;20168;-69
2022/08/03 01:59:03;;;;;;;6.65;5.95;;;;;;;19.27;nan;100452.53;5007327;28;20380;-69
2022/08/03 02:01:31;;;;;;;11.40;6.63;;;;;;;19.12;nan;100408.88;5010955;28;20124;-69
2022/08/03 02:03:58;;;;;;;8.65;7.03;;;;;;;19.09;nan;100472.72;5011061;28;20034;-69
2022/08/03 02:06:25;;;;;;;8.18;6.40;;;;;;;19.04;nan;100465.53;5008798;28;20161;-69
2022/08/03 02:08:52;;;;;;;8.32;6.88;;;;;;;18.82;nan;100478.50;5009175;28;20030;-71
2022/08/03 02:11:18;;;;;;;10.27;7.15;;;;;;;18.71;nan;100451.09;5001738;28;20038;-70
2022/08/03 02:13:46;;;;;;;9.45;7.40;;;;;;;18.62;nan;100453.53;5011296;28;20036;-68
2022/08/03 02:16:13;;;;;;;10.05;7.10;;;;;;;18.42;nan;100501.66;5006512;28;20021;-68
2022/08/03 02:18:39;;;;;;;10.65;6.70;;;;;;;;;;5009322;28;20033;-70
2022/08/03 02:21:09;;;;;;;10.20;7.47;;;;;;;18.33;nan;100472.13;5008156;28;20041;-69
2022/08/03 02:23:34;;;;;;;8.88;7.20;;;;;;;;;;5014520;28;20092;-69
2022/08/03 02:26:03;;;;;;;9.85;7.20;;;;;;;18.44;nan;100460.31;5002843;28;20042;-69
2022/08/03 02:28:34;;;;;;;10.15;7.55;;;;;;;18.42;nan;100451.00;5001886;28;20049;-69
2022/08/03 02:31:03;;;;;;;8.52;7.28;;;;;;;18.39;nan;100417.69;5005331;28;20511;-69
2022/08/03 02:33:37;;;;;;;8.70;7.10;;;;;;;18.47;nan;100451.78;5006218;28;20034;-69
2022/08/03 02:36:04;;;;;;;8.68;6.70;;;;;;;18.41;nan;100438.75;5023479;28;20480;-69
2022/08/03 02:38:35;;;;;;;10.30;7.60;;;;;;;18.44;nan;100457.66;5008389;28;20108;-69
2022/08/03 02:41:06;;;;;;;11.82;7.78;;;;;;;18.41;nan;100460.88;5007788;28;20029;-70
2022/08/03 02:43:35;;;;;;;9.73;7.65;;;;;;;18.38;nan;100444.63;5006379;28;20396;-70
2022/08/03 02:46:00;;;;;;;9.18;7.20;;;;;;;18.35;nan;100459.31;5011996;28;20080;-69
2022/08/03 02:48:27;;;;;;;14.07;6.80;;;;;;;;;;5010642;28;20077;-69
2022/08/03 02:50:55;;;;;;;7.97;7.10;;;;;;;18.30;nan;100426.56;5011201;28;20049;-69
2022/08/03 02:53:22;;;;;;;8.68;6.70;;;;;;;18.29;nan;100465.72;5008810;28;20026;-69
2022/08/03 02:55:49;;;;;;;10.18;6.72;;;;;;;18.27;nan;100473.22;5008786;28;20441;-70
2022/08/03 02:58:20;;;;;;;10.70;6.95;;;;;;;18.28;nan;100466.81;5008466;28;20034;-70
2022/08/03 03:00:46;;;;;;;8.45;6.32;;;;;;;18.27;nan;100460.69;5001455;28;20775;-69
2022/08/03 03:03:13;;;;;;;9.55;7.03;;;;;;;18.28;nan;100475.59;5007245;28;20057;-70
2022/08/03 03:05:40;;;;;;;12.25;6.78;;;;;;;18.27;nan;100471.34;5009393;28;20052;-71
2022/08/03 03:08:06;;;;;;;13.18;6.30;;;;;;;18.27;nan;100471.34;5006596;28;20057;-72
2022/08/03 03:10:31;;;;;;;7.47;6.68;;;;;;;18.27;nan;100465.22;5004795;28;20038;-71
2022/08/03 03:12:59;;;;;;;7.78;6.47;;;;;;;18.30;nan;100487.88;5005458;28;20076;-72
2022/08/03 03:15:26;;;;;;;9.20;6.43;;;;;;;18.28;nan;100477.47;5005826;28;20503;-70
2022/08/03 03:17:52;;;;;;;7.80;6.20;;;;;;;18.29;nan;100481.72;5005301;28;20080;-71
2022/08/03 03:20:20;;;;;;;7.55;6.00;;;;;;;18.30;nan;100472.66;5007536;28;20026;-71
2022/08/03 03:22:47;;;;;;;10.55;6.45;;;;;;;18.30;nan;100472.66;5006207;28;20124;-71
2022/08/03 03:25:13;;;;;;;8.98;6.75;;;;;;;18.30;nan;100475.34;5007066;28;20052;-71
2022/08/03 03:27:39;;;;;;;9.00;6.63;;;;;;;18.27;nan;100476.69;5009827;28;20116;-69
2022/08/03 03:30:04;;;;;;;10.77;6.68;;;;;;;;;;5007031;28;20037;-69
2022/08/03 03:32:30;;;;;;;9.40;6.93;;;;;;;18.18;nan;100496.97;5008159;28;20029;-70
2022/08/03 03:34:58;;;;;;;7.30;6.10;;;;;;;18.17;nan;100484.75;5006915;28;20029;-68
2022/08/03 03:37:23;;;;;;;8.85;6.45;;;;;;;;;;5009672;28;20096;-69
2022/08/03 03:39:48;;;;;;;10.68;5.90;;;;;;;;;;5009194;28;20026;-68
2022/08/03 03:42:14;;;;;;;10.67;5.47;;;;;;;17.98;nan;100489.88;5005373;28;20129;-69
2022/08/03 03:44:39;;;;;;;8.07;6.15;;;;;;;18.01;nan;100513.28;5006472;28;20282;-69
2022/08/03 03:47:05;;;;;;;9.05;6.03;;;;;;;17.89;nan;100502.16;5006146;28;20038;-70
2022/08/03 03:49:31;;;;;;;10.68;6.00;;;;;;;17.98;nan;100515.69;5008504;28;20117;-69
2022/08/03 03:51:57;;;;;;;10.07;6.28;;;;;;;17.87;nan;100482.97;5008864;28;20117;-69
2022/08/03 03:54:22;;;;;;;9.18;6.22;;;;;;;;;;5003790;28;20034;-68
2022/08/03 03:56:47;;;;;;;10.85;5.97;;;;;;;17.98;nan;100497.88;5008028;28;20174;-71
2022/08/03 03:59:13;;;;;;;9.85;6.00;;;;;;;;;;5006593;28;20041;-70
2022/08/03 04:01:38;;;;;;;11.73;5.50;;;;;;;17.96;nan;100515.19;5008106;28;20050;-69
2022/08/03 04:12:23;;;;;;;6.72;5.40;;;;;;;;;;5006348;28;20088;-67
2022/08/03 04:14:49;;;;;;;8.02;4.82;;;;;;;;;;5004903;28;20041;-69
2022/08/03 04:17:17;;;;;;;7.10;5.10;;;;;;;17.88;nan;100524.50;5008053;28;20423;-68
2022/08/03 04:19:47;;;;;;;7.80;5.45;;;;;;;;;;5005485;28;20038;-70
2022/08/03 04:22:18;;;;;;;15.90;5.88;;;;;;;17.91;nan;100531.16;5006642;28;20038;-70
2022/08/03 04:24:46;;;;;;;10.75;5.20;;;;;;;;;;5007379;28;20038;-69
2022/08/03 04:27:16;;;;;;;14.77;5.43;;;;;;;17.85;nan;100506.41;5006543;28;20038;-69
2022/08/03 04:29:45;;;;;;;8.43;5.45;;;;;;;17.97;nan;100522.91;5004869;28;20065;-69
2022/08/03 04:32:13;;;;;;;11.38;5.60;;;;;;;17.91;nan;100568.47;5002322;28;20457;-71
2022/08/03 04:34:38;;;;;;;10.00;5.15;;;;;;;18.00;nan;100548.19;5003504;28;20125;-70
2022/08/03 04:40:00;;;;;;;9.80;5.40;;;;;;;18.06;nan;100533.81;5003795;28;20038;-68
2022/08/03 04:42:26;;;;;;;;;;;;;;;18.12;nan;100531.91;5006645;28;20125;-70
2022/08/03 04:44:54;;;;;;;7.88;5.35;;;;;;;18.08;nan;100560.97;5004403;28;20004;-69
2022/08/03 04:47:20;;;;;;;18.02;5.95;;;;;;;18.15;nan;100534.03;5005681;28;20037;-69
2022/08/03 04:49:46;;;;;;;10.80;5.70;;;;;;;;;;5006944;28;20033;-69
2022/08/03 04:52:11;;;;;;;14.38;5.78;;;;;;;18.12;nan;100537.25;5007928;28;20081;-68
2022/08/03 04:54:42;;;;;;;9.05;6.05;;;;;;;18.11;nan;100546.31;5005863;28;20038;-70
2022/08/03 04:57:07;;;;;;;9.30;5.60;;;;;;;;;;5006774;28;20033;-69
2022/08/03 04:59:32;;;;;;;12.52;5.70;;;;;;;;;;5011544;28;20448;-71
2022/08/03 05:01:58;;;;;;;6.93;5.33;;;;;;;18.16;nan;100544.41;5012338;28;20425;-69
2022/08/03 05:04:23;;;;;;;11.32;5.45;;;;;;;;;;5008039;28;20030;-70
2022/08/03 05:06:48;;;;;;;13.23;5.77;;;;;;;18.22;nan;100546.00;5012375;28;20033;-69
2022/08/03 05:09:14;;;;;;;12.38;5.82;;;;;;;;;;5013375;28;20512;-68
2022/08/03 05:11:39;;;;;;;13.10;6.30;;;;;;;18.17;nan;100559.38;5009729;28;20045;-68
2022/08/03 05:14:04;;;;;;;14.02;6.10;;;;;;;18.24;nan;100569.72;5009883;28;21227;-68
2022/08/03 05:16:30;;;;;;;17.40;6.30;;;;;;;;;;5010395;28;20065;-67
2022/08/03 05:18:55;;;;;;;18.52;5.78;;;;;;;18.17;nan;100558.53;5010812;28;20176;-68
2022/08/03 05:21:20;;;;;;;12.25;6.10;;;;;;;;;;5010784;28;20065;-68
2022/08/03 05:23:46;;;;;;;15.73;5.85;;;;;;;18.39;nan;100545.69;5010766;28;20546;-70
2022/08/03 05:26:11;;;;;;;15.18;6.07;;;;;;;;;;5004845;28;20594;-69
2022/08/03 05:28:37;;;;;;;14.00;5.90;;;;;;;18.50;nan;100557.09;5009650;28;20053;-69
2022/08/03 05:31:02;;;;;;;19.15;6.95;;;;;;;18.57;nan;100567.47;5004586;28;20065;-70
2022/08/03 05:33:28;;;;;;;16.42;5.60;;;;;;;18.66;nan;100558.59;5011118;28;20413;-71
2022/08/03 05:35:53;;;;;;;12.63;5.22;;;;;;;18.72;nan;100580.72;5006951;28;20543;-68
2022/08/03 05:38:19;;;;;;;11.70;5.53;;;;;;;18.81;nan;100584.44;5012592;28;20026;-66
2022/08/03 05:40:44;;;;;;;13.10;5.70;;;;;;;;;;5005446;28;20112;-65
2022/08/03 05:43:09;;;;;;;10.33;5.77;;;;;;;19.01;nan;100602.22;5005745;28;20044;-71
2022/08/03 05:45:36;;;;;;;10.75;5.43;;;;;;;19.02;nan;100643.03;5012261;28;20041;-73
2022/08/03 05:48:03;;;;;;;7.57;5.10;;;;;;;19.22;nan;100578.84;5008138;28;20125;-69
2022/08/03 05:50:28;;;;;;;8.90;4.68;;;;;;;19.32;nan;100576.13;5022521;28;20522;-70
2022/08/03 05:52:56;;;;;;;14.52;5.30;;;;;;;19.40;nan;100589.94;5007806;28;20125;-69
2022/08/03 05:55:22;;;;;;;10.23;4.68;;;;;;;;;;5007090;28;20503;-70
2022/08/03 05:57:47;;;;;;;11.23;5.20;;;;;;;19.60;nan;100572.94;5011621;28;20034;-70
2022/08/03 06:00:13;;;;;;;11.32;4.97;;;;;;;19.67;nan;100584.88;5006260;28;20026;-70
2022/08/03 06:02:39;;;;;;;11.68;4.40;;;;;;;19.83;nan;100614.19;5009515;28;20030;-70
2022/08/03 06:05:05;;;;;;;8.40;4.00;;;;;;;19.96;nan;100594.81;5009674;28;20392;-70
2022/08/03 06:07:31;;;;;;;11.80;4.47;;;;;;;20.07;nan;100611.56;5013006;28;20373;-71
2022/08/03 06:09:57;;;;;;;7.43;3.92;;;;;;;20.13;nan;100613.88;5010250;28;20026;-71
2022/08/03 06:12:22;;;;;;;6.85;3.53;;;;;;;20.35;nan;100624.09;5010566;28;20027;-69
2022/08/03 06:14:48;;;;;;;9.60;3.30;;;;;;;20.45;nan;100607.13;5005644;28;20034;-70
2022/08/03 06:17:15;;;;;;;4.90;3.45;;;;;;;20.54;nan;100655.41;5010048;28;20162;-66
2022/08/03 06:19:41;;;;;;;6.18;3.47;;;;;;;20.69;nan;100619.72;5005008;28;20042;-71
2022/08/03 06:22:06;;;;;;;6.57;3.45;;;;;;;20.82;nan;100610.97;5010316;28;20041;-71
2022/08/03 06:24:32;;;;;;;7.32;3.70;;;;;;;20.91;nan;100611.13;5004986;28;20400;-70
2022/08/03 06:26:57;;;;;;;4.55;3.15;;;;;;;21.03;nan;100577.47;5011017;28;20502;-71
2022/08/03 06:29:22;;;;;;;6.28;3.28;;;;;;;21.22;nan;100617.63;5015463;28;20652;-68
2022/08/03 06:31:48;;;;;;;7.88;3.25;;;;;;;21.32;nan;100605.16;5012803;28;20105;-71
2022/08/03 06:34:13;;;;;;;7.75;2.97;;;;;;;21.55;nan;100619.56;5011764;28;20041;-72
2022/08/03 06:36:39;;;;;;;7.72;3.63;;;;;;;21.61;nan;100595.06;5011206;28;20033;-70
2022/08/03 06:39:05;;;;;;;6.95;3.13;;;;;;;21.73;nan;100616.03;5012491;28;20033;-71
2022/08/03 06:41:30;;;;;;;5.78;2.80;;;;;;;21.82;nan;100600.88;5012724;28;20581;-68
2022/08/03 06:43:56;;;;;;;6.18;3.00;;;;;;;21.85;nan;100611.00;5012830;28;20044;-67
2022/08/03 06:46:21;;;;;;;6.18;3.00;;;;;;;21.97;nan;100546.16;5008235;28;20060;-70
2022/08/03 06:48:47;;;;;;;7.10;3.17;;;;;;;22.26;nan;100617.53;5013641;28;20125;-70
2022/08/03 06:51:12;;;;;;;6.80;2.85;;;;;;;22.44;nan;100605.13;5011355;28;20033;-70
2022/08/03 06:53:38;;;;;;;7.70;2.90;;;;;;;;;;5013020;28;20054;-71
2022/08/03 06:56:04;;;;;;;8.00;2.67;;;;;;;22.76;nan;100585.38;5008905;28;20061;-70
2022/08/03 06:58:30;;;;;;;4.65;2.72;;;;;;;22.92;nan;100612.69;5009828;28;20041;-71
2022/08/03 07:00:55;;;;;;;5.47;2.83;;;;;;;23.09;nan;100623.59;5010064;28;20384;-70
2022/08/03 07:03:21;;;;;;;4.40;2.72;;;;;;;23.24;nan;100661.97;5012364;28;20030;-70
2022/08/03 07:05:46;;;;;;;8.48;2.97;;;;;;;23.28;nan;100567.03;5007621;28;20471;-70
2022/08/03 07:08:13;;;;;;;8.00;3.10;;;;;;;23.42;nan;100601.09;5012041;28;20539;-74
2022/08/03 07:10:38;;;;;;;3.50;2.50;;;;;;;23.66;nan;100590.81;5025561;28;20038;-70
2022/08/03 07:13:04;;;;;;;8.15;2.63;;;;;;;23.80;nan;100590.75;5008744;28;20036;-69
2022/08/03 07:15:30;;;;;;;4.75;3.10;;;;;;;23.87;nan;100615.31;5010718;28;20089;-70
2022/08/03 07:17:55;;;;;;;6.10;2.90;;;;;;;23.93;nan;100614.06;5008749;28;20034;-69
2022/08/03 07:20:21;;;;;;;5.45;2.88;;;;;;;24.00;nan;100608.25;5009481;28;20045;-69
2022/08/03 07:22:46;;;;;;;3.88;2.70;;;;;;;24.06;nan;100595.44;5011586;28;20041;-70
2022/08/03 07:25:12;;;;;;;6.90;2.50;;;;;;;;;;5021465;28;20563;-70
2022/08/03 07:27:37;;;;;;;7.00;2.57;;;;;;;24.36;nan;100597.28;5012111;28;20051;-69
2022/08/03 07:30:06;;;;;;;3.58;2.67;;;;;;;24.45;nan;100629.63;5011729;28;20278;-67
2022/08/03 07:32:31;;;;;;;6.13;3.03;;;;;;;24.48;nan;100617.47;5013784;28;20032;-68
2022/08/03 07:34:57;;;;;;;4.80;2.90;;;;;;;24.57;nan;100602.13;5010341;28;20029;-69
2022/08/03 07:37:23;;;;;;;5.97;2.95;;;;;;;24.58;nan;100609.88;5010721;28;20157;-68
2022/08/03 07:39:48;;;;;;;10.13;2.90;;;;;;;24.59;nan;100651.06;4993620;28;20377;-69
2022/08/03 07:42:13;;;;;;;8.30;2.83;;;;;;;24.70;nan;100613.88;5008968;28;20101;-69
2022/08/03 07:44:39;;;;;;;3.47;2.55;;;;;;;24.70;nan;100620.03;5008435;28;20037;-69
2022/08/03 07:47:05;;;;;;;2.78;2.30;;;;;;;24.91;nan;100570.94;5012702;28;20049;-68
2022/08/03 07:49:30;;;;;;;9.27;2.83;;;;;;;24.95;nan;100623.88;5006644;28;20034;-70
2022/08/03 07:54:40;;;;;;;6.03;2.85;;;;;;;25.22;nan;100614.69;5009382;28;20030;-68
2022/08/03 07:57:05;;;;;;;4.60;2.53;;;;;;;25.26;nan;100620.28;5006186;28;20557;-70
2022/08/03 07:59:31;;;;;;;7.65;2.95;;;;;;;25.35;nan;100612.16;5010411;28;20025;-68
2022/08/03 08:01:56;;;;;;;7.43;2.70;;;;;;;25.58;nan;100629.72;5008368;28;20061;-67
2022/08/03 08:04:22;;;;;;;4.05;2.30;;;;;;;25.63;nan;100596.41;5008409;28;20361;-69
2022/08/03 08:06:47;;;;;;;3.97;2.38;;;;;;;25.65;nan;100650.81;5010473;28;20025;-69
2022/08/03 08:09:13;;;;;;;8.05;2.38;;;;;;;25.65;nan;100608.44;5008204;28;20048;-69
2022/08/03 08:11:39;;;;;;;2.80;2.15;;;;;;;25.72;nan;100628.75;5007674;28;20034;-69
2022/08/03 08:14:06;;;;;;;3.67;2.40;;;;;;;25.79;nan;100618.25;5009915;28;20104;-69
2022/08/03 08:16:31;;;;;;;6.95;2.40;;;;;;;25.93;nan;100608.09;5007395;28;20125;-71
2022/08/03 08:18:57;;;;;;;6.13;2.38;;;;;;;25.98;nan;100616.00;5009784;28;20117;-69
2022/08/03 08:21:22;;;;;;;2.75;2.45;;;;;;;26.00;nan;100557.09;5009084;28;20532;-70
2022/08/03 08:23:48;;;;;;;4.20;2.35;;;;;;;26.08;nan;100628.34;5018260;28;20097;-69
2022/08/03 08:26:13;;;;;;;2.92;2.35;;;;;;;26.15;nan;100614.34;5008302;28;20065;-69
2022/08/03 08:28:39;;;;;;;2.60;2.40;;;;;;;26.17;nan;100595.91;5003623;28;20038;-70
2022/08/03 08:31:05;;;;;;;4.82;2.50;;;;;;;26.21;nan;100654.31;5004902;28;20476;-69
2022/08/03 08:33:31;;;;;;;4.68;2.13;;;;;;;26.37;nan;100603.25;5009963;28;20384;-70
2022/08/03 08:35:56;;;;;;;5.00;2.67;;;;;;;26.50;nan;100640.03;5012220;28;20033;-70
2022/08/03 08:38:22;;;;;;;6.80;2.60;;;;;;;26.47;nan;100621.00;5012227;28;20068;-69
2022/08/03 08:40:49;;;;;;;4.60;2.60;;;;;;;26.66;nan;100634.09;5014969;28;20036;-70
2022/08/03 08:43:14;;;;;;;3.33;2.60;;;;;;;26.68;nan;100621.84;5009351;28;20026;-69
2022/08/03 08:45:40;;;;;;;3.22;2.70;;;;;;;26.76;nan;100624.81;5013134;28;20107;-69
2022/08/03 08:48:06;;;;;;;3.70;2.50;;;;;;;26.82;nan;100623.53;5013620;28;20034;-70
2022/08/03 08:50:32;;;;;;;5.13;3.10;;;;;;;26.85;nan;100676.91;5011697;28;20034;-71
2022/08/03 08:53:02;;;;;;;6.13;2.72;;;;;;;26.93;nan;100598.44;5011036;28;20068;-70
2022/08/03 08:55:28;;;;;;;4.90;3.00;;;;;;;27.03;nan;100637.81;5010492;28;20048;-70
2022/08/03 08:58:04;;;;;;;6.18;3.10;;;;;;;27.08;nan;100601.66;5012420;28;20026;-70
2022/08/03 09:00:30;;;;;;;3.75;2.92;;;;;;;27.21;nan;100608.75;5012988;28;20030;-69
2022/08/03 09:02:56;;;;;;;4.93;2.67;;;;;;;27.29;nan;100607.06;5010391;28;20404;-69
2022/08/03 09:05:21;;;;;;;3.47;2.85;;;;;;;27.30;nan;100585.13;5012156;28;20044;-69
2022/08/03 09:07:47;;;;;;;3.58;2.90;;;;;;;27.44;nan;100614.59;5012580;28;20088;-70
2022/08/03 09:10:18;;;;;;;3.20;2.75;;;;;;;27.51;nan;100619.41;5010568;28;20042;-69
2022/08/03 09:12:46;;;;;;;7.10;2.88;;;;;;;27.54;nan;100605.25;5009961;28;20109;-69
2022/08/03 09:15:17;;;;;;;3.05;2.75;;;;;;;27.66;nan;100628.84;5012847;28;20033;-69
2022/08/03 09:17:42;;;;;;;6.82;2.72;;;;;;;27.75;nan;100591.63;5012693;28;20124;-70
2022/08/03 09:20:09;;;;;;;4.00;2.60;;;;;;;27.82;nan;100620.84;5010312;28;20030;-70
2022/08/03 09:22:35;;;;;;;7.15;3.20;;;;;;;27.86;nan;100609.03;5008258;28;20061;-69
2022/08/03 09:25:04;;;;;;;4.53;2.75;;;;;;;27.93;nan;100603.09;5009329;28;20098;-69
2022/08/03 09:27:40;;;;;;;;;;;;;;;28.00;nan;100606.03;5008397;28;20029;-70
2022/08/03 09:30:12;;;;;;;3.63;2.22;;;;;;;27.99;nan;100594.41;5008146;28;19914;-69
2022/08/03 09:32:38;;;;;;;3.40;2.42;;;;;;;28.06;nan;100620.91;5008845;28;20081;-69
2022/08/03 09:35:04;;;;;;;5.97;2.65;;;;;;;28.21;nan;100598.56;5006157;28;20026;-70
2022/08/03 09:37:29;;;;;;;4.70;2.25;;;;;;;28.23;nan;100600.13;5011211;28;20550;-70
2022/08/03 09:39:55;;;;;;;3.95;2.50;;;;;;;28.27;nan;100565.84;5011588;28;20030;-70
2022/08/03 09:42:22;;;;;;;5.53;2.92;;;;;;;28.32;nan;100587.28;5010717;28;20026;-71
2022/08/03 09:44:49;;;;;;;5.57;2.72;;;;;;;28.36;nan;100588.97;5007572;28;20037;-71
2022/08/03 09:47:38;;;;;;;11.95;3.58;;;;;;;28.45;nan;100605.09;5011248;28;20091;-69
2022/08/03 09:50:07;;;;;;;6.80;3.33;;;;;;;28.51;nan;100563.13;5010627;28;20041;-69
2022/08/03 09:52:38;;;;;;;4.75;2.78;;;;;;;28.63;nan;100594.81;5002756;28;20113;-70
2022/08/03 09:55:12;;;;;;;6.53;3.40;;;;;;;28.70;nan;100572.56;5013307;28;20037;-70
2022/08/03 09:57:39;;;;;;;6.20;3.20;;;;;;;28.72;nan;100584.63;5011623;28;20061;-69
2022/08/03 10:00:10;;;;;;;4.32;2.50;;;;;;;28.89;nan;100569.22;5007838;28;20570;-70
2022/08/03 10:02:36;;;;;;;3.38;2.72;;;;;;;28.88;nan;100546.75;5011846;28;20037;-70
2022/08/03 10:05:03;;;;;;;4.28;2.50;;;;;;;28.88;nan;100571.16;5010846;28;20497;-71
2022/08/03 10:07:28;;;;;;;6.13;2.33;;;;;;;29.01;nan;100610.63;5008461;28;20046;-69
2022/08/03 10:09:59;;;;;;;3.10;2.47;;;;;;;29.10;nan;100563.63;5008659;28;20370;-69
2022/08/03 10:12:26;;;;;;;9.20;3.72;;;;;;;29.12;nan;100623.75;5012740;28;20029;-70
2022/08/03 10:14:52;;;;;;;4.03;2.55;;;;;;;29.22;nan;100558.94;5009773;28;20125;-70
2022/08/03 10:17:19;;;;;;;2.65;2.30;;;;;;;29.28;nan;100564.88;5009584;28;20041;-70
2022/08/03 10:19:45;;;;;;;3.03;2.60;;;;;;;29.36;nan;100555.03;5007340;28;20510;-70
2022/08/03 10:22:26;;;;;;;3.45;2.55;;;;;;;29.44;nan;100562.19;5012501;28;20034;-70
2022/08/03 10:24:55;;;;;;;2.63;2.25;;;;;;;29.48;nan;100555.72;5010495;28;20087;-71
2022/08/03 10:27:26;;;;;;;3.78;2.22;;;;;;;29.53;nan;100551.19;5001755;28;20515;-71
2022/08/03 10:29:54;;;;;;;4.38;2.33;;;;;;;29.60;nan;100565.72;5009204;28;20038;-70
2022/08/03 10:32:38;;;;;;;4.50;2.10;;;;;;;29.71;nan;100578.78;5006319;28;20037;-71
2022/08/03 10:35:07;;;;;;;2.65;2.40;;;;;;;29.78;nan;100565.38;5011719;28;20403;-71
2022/08/03 10:37:39;;;;;;;3.08;2.53;;;;;;;29.85;nan;100547.31;5009195;28;20053;-71
2022/08/03 10:40:07;;;;;;;3.38;2.40;;;;;;;29.89;nan;100571.88;5011384;28;20037;-70
2022/08/03 10:42:34;;;;;;;3.75;2.63;;;;;;;30.01;nan;100579.91;5009932;28;20396;-69
2022/08/03 10:45:02;;;;;;;5.78;2.28;;;;;;;30.13;nan;100532.06;5025369;28;20103;-69
2022/08/03 10:47:30;;;;;;;3.28;2.75;;;;;;;30.20;nan;100527.56;5008040;28;20030;-70
2022/08/03 10:49:56;;;;;;;7.05;2.60;;;;;;;30.21;nan;100609.84;5008862;28;20037;-70
2022/08/03 10:52:21;;;;;;;4.15;2.70;;;;;;;30.18;nan;100521.69;5011055;28;20444;-68
2022/08/03 10:57:49;;;;;;;3.90;2.78;;;;;;;30.18;nan;100548.06;5010037;28;20404;-70
2022/08/03 11:00:25;;;;;;;4.28;2.55;;;;;;;30.18;nan;100572.53;5011261;28;20121;-68
2022/08/03 11:03:15;;;;;;;5.80;2.83;;;;;;;30.23;nan;100537.72;5005557;28;20021;-69
2022/08/03 11:05:48;;;;;;;4.25;3.05;;;;;;;30.23;nan;100526.84;5008007;28;20557;-69
2022/08/03 11:08:24;;;;;;;4.90;3.00;;;;;;;30.26;nan;100519.94;5010558;28;20046;-68
2022/08/03 11:10:52;;;;;;;4.95;2.65;;;;;;;30.36;nan;100508.53;5005724;28;20503;-69
2022/08/03 11:13:21;;;;;;;4.35;2.45;;;;;;;30.47;nan;100511.47;5007994;28;20080;-71
2022/08/03 11:15:48;;;;;;;2.67;2.40;;;;;;;30.49;nan;100528.97;5003639;28;20037;-72
2022/08/03 11:18:15;;;;;;;2.63;2.40;;;;;;;30.53;nan;100567.91;5006576;28;20092;-68
2022/08/03 11:20:46;;;;;;;3.65;2.55;;;;;;;30.56;nan;100525.63;5009064;28;20041;-68
2022/08/03 11:23:12;;;;;;;2.88;2.45;;;;;;;30.58;nan;100512.47;5008824;28;20037;-69
2022/08/03 11:26:09;;;;;;;4.80;3.00;;;;;;;30.71;nan;100521.25;5008856;28;20133;-68
2022/08/03 11:28:35;;;;;;;4.10;2.60;;;;;;;30.83;nan;100436.03;5003231;28;20030;-69
2022/08/03 11:31:23;;;;;;;2.70;2.50;;;;;;;30.99;nan;100493.84;5007521;28;20037;-67
2022/08/03 11:34:10;;;;;;;4.28;2.40;;;;;;;31.13;nan;100488.66;5004457;28;20061;-68
2022/08/03 11:37:13;;;;;;;3.15;2.30;;;;;;;31.19;nan;100493.78;5009151;28;20084;-68
2022/08/03 11:39:45;;;;;;;2.13;1.88;;;;;;;31.22;nan;100504.72;5010462;28;20034;-70
2022/08/03 11:42:22;;;;;;;2.22;2.00;;;;;;;31.21;nan;100480.63;5006737;28;20034;-68
2022/08/03 11:44:59;;;;;;;4.18;1.85;;;;;;;31.28;nan;100461.69;5007257;28;20121;-71
2022/08/03 11:47:26;;;;;;;9.23;2.00;;;;;;;31.44;nan;100486.88;5010092;28;20484;-71
2022/08/03 11:49:57;;;;;;;2.47;2.10;;;;;;;31.44;nan;100477.91;5009701;28;20033;-71
2022/08/03 11:52:24;;;;;;;3.65;2.20;;;;;;;31.43;nan;100471.66;5006007;28;20501;-71
2022/08/03 11:54:50;;;;;;;2.00;1.80;;;;;;;31.46;nan;100472.88;5010125;28;20077;-68
2022/08/03 11:57:30;;;;;;;2.13;1.75;;;;;;;31.52;nan;100458.59;5010703;28;20626;-69
2022/08/03 11:59:55;;;;;;;2.13;1.80;;;;;;;31.54;nan;100486.25;5006772;28;20053;-71
2022/08/03 12:02:20;;;;;;;5.00;1.92;;;;;;;31.62;nan;100467.28;5008508;28;20037;-69
2022/08/03 12:04:59;;;;;;;2.17;1.98;;;;;;;31.72;nan;100453.03;5009268;28;20369;-71
2022/08/03 12:07:28;;;;;;;6.47;2.35;;;;;;;31.72;nan;100456.53;5008347;28;20053;-71
2022/08/03 12:10:24;;;;;;;2.30;2.10;;;;;;;31.85;nan;100484.38;5007622;28;20096;-70
2022/08/03 12:12:57;;;;;;;2.60;2.40;;;;;;;31.85;nan;100461.81;4992722;28;20069;-68
2022/08/03 12:15:32;;;;;;;2.08;1.90;;;;;;;31.86;nan;100471.53;5008827;28;20041;-68